Portada
METAR-TAF:

METAR-TAF

Aeroports :

Karachi, Pakistan

latitud: 24-54N, longitud: 067-08E, altitud: 21 m

Observació

L'informe es va fer fa 21 minuts, a les 22:30 UTC
Vent 5 kt del Nord
Temperatura 22°C
Humitat 50%
Pressió 1014 hPa
Visibilitat: 3000 m
calitja

METAR: OPKC 242230Z 35005KT 3000 HZ NSC 22/11 Q1014 NOSIG

Hora: 03:51 (22:51 UTC)

Pronòstic

L'informe es va fer fa 4 hores i 21 minuts, a les 18:30 UTC
Pronòstic vàlid del 24 a les 21 UTC al 25 a les 06 UTC
Vent 8 kt del Nord/Nord-Est
Visibilitat: 3000 m
calitja
Temporalment
l' 25 a les 01 UTC al 25 a les 05 UTC
Vent 5 kt del Nord/Nord-Est
Visibilitat: 2000 m
fum

TAF: OPKC 241830Z 2421/2506 03008KT 3000 HZ NSC TEMPO 2501/2505 03005KT 2000 FU NSC

Observacions i pronòstics meteorològics de més de 4000 aeroports (METAR i TAF).

Les estacions disponibles són els punts grocs i vermells al mapa.

Posi el ratolí al punt desitjat per veure el nom de l'estació.

Feu clic per veure les observacions i els pronòstics meteorològics.

Per canviar el mapa: feu clic els botons verds amb una creu de color negre per apropar; al botó verd amb un guió per allunyar la imatge; o en les fletxes verdes per a mapes adjacents.


METAR-TAF: